Time;durP1;ratioP1;P1;durP2;ratioP2;P2;SDS_P1;SDS_P2;PMS_P1;PMS_P2;Temp;Humidity;BMP_temperature;BMP_pressure;BME280_temperature;BME280_humidity;BME280_pressure;Samples;Min_cycle;Max_cycle;Signal;HPM_P1;HPM_P2
2023/12/31 00:03:17;;;;;;;14.90;7.32;;;;;;;2.95;74.41;100094.97;31347022;27;126926;-65
2023/12/31 00:18:18;;;;;;;16.20;7.50;;;;;;;2.85;75.01;100073.00;31346538;27;97443;-66
2023/12/31 00:33:18;;;;;;;21.23;8.02;;;;;;;2.84;75.18;100077.44;31344752;27;125248;-65
2023/12/31 00:48:18;;;;;;;16.30;7.35;;;;;;;2.84;75.40;100076.59;31343312;27;124366;-65
2023/12/31 01:03:19;;;;;;;16.52;9.65;;;;;;;3.00;75.67;100058.59;31341724;27;125606;-65
2023/12/31 01:18:20;;;;;;;17.45;9.45;;;;;;;2.97;75.32;100052.75;31342174;27;96867;-65
2023/12/31 01:33:20;;;;;;;16.13;9.18;;;;;;;2.76;75.55;100050.06;31341330;27;96904;-65
2023/12/31 01:48:20;;;;;;;16.45;7.65;;;;;;;2.59;75.76;100048.78;31337014;27;126760;-65
2023/12/31 02:03:23;;;;;;;14.68;8.68;;;;;;;2.35;76.06;100044.50;31337212;27;97033;-65
2023/12/31 02:18:24;;;;;;;18.15;8.98;;;;;;;2.12;75.74;100033.16;31334020;27;97633;-64
2023/12/31 02:33:25;;;;;;;15.13;7.50;;;;;;;1.98;76.41;100045.59;31334631;27;97060;-65
2023/12/31 02:48:25;;;;;;;13.65;8.52;;;;;;;1.92;76.59;100022.41;31332503;27;97350;-65
2023/12/31 03:03:25;;;;;;;16.13;8.20;;;;;;;1.76;76.45;100016.66;31330422;27;125446;-64
2023/12/31 03:18:25;;;;;;;16.77;8.63;;;;;;;1.60;76.53;100015.22;31330368;27;126821;-64
2023/12/31 03:33:26;;;;;;;17.65;10.55;;;;;;;1.48;76.64;100029.28;31350518;27;125552;-66
2023/12/31 03:48:26;;;;;;;20.00;9.52;;;;;;;1.33;76.71;100013.72;31349654;27;96766;-64
2023/12/31 04:03:26;;;;;;;16.00;8.43;;;;;;;1.25;76.98;100004.75;31347933;27;125223;-64
2023/12/31 04:18:27;;;;;;;17.05;8.63;;;;;;;1.13;77.29;100004.69;31344886;27;124450;-65
2023/12/31 04:33:27;;;;;;;15.73;8.98;;;;;;;0.98;77.60;99997.97;31342633;27;125479;-65
2023/12/31 04:48:27;;;;;;;14.60;8.48;;;;;;;0.93;78.02;99982.59;31341185;27;124586;-64
2023/12/31 05:03:27;;;;;;;15.95;8.45;;;;;;;0.82;77.81;99974.66;31339713;27;125199;-65
2023/12/31 05:18:28;;;;;;;14.55;8.95;;;;;;;0.74;78.02;99966.50;31337375;27;124456;-65
2023/12/31 05:33:28;;;;;;;14.60;9.48;;;;;;;0.75;78.37;99953.31;31338417;27;96621;-64
2023/12/31 05:48:28;;;;;;;17.88;9.77;;;;;;;0.71;78.39;99937.91;31333661;27;125532;-65
2023/12/31 06:03:29;;;;;;;21.30;10.88;;;;;;;0.64;78.80;99933.13;31334202;27;122396;-66
2023/12/31 06:18:29;;;;;;;22.40;11.45;;;;;;;0.56;78.57;99901.38;31333186;27;97210;-65
2023/12/31 06:33:30;;;;;;;21.17;11.70;;;;;;;0.44;78.91;99874.28;31331134;27;126569;-65
2023/12/31 06:48:30;;;;;;;25.05;11.40;;;;;;;0.33;78.89;99869.84;31329426;27;125163;-65
2023/12/31 07:03:31;;;;;;;23.95;11.07;;;;;;;0.35;79.07;99855.78;31343212;27;97255;-64
2023/12/31 07:18:32;;;;;;;24.25;12.88;;;;;;;0.51;78.84;99861.56;31349625;27;97118;-64
2023/12/31 07:33:32;;;;;;;21.85;12.95;;;;;;;0.85;79.27;99840.69;31346322;27;97059;-64
2023/12/31 07:48:33;;;;;;;25.15;13.57;;;;;;;1.58;79.72;99811.47;31346672;27;125547;-65
2023/12/31 08:03:33;;;;;;;25.92;14.15;;;;;;;2.86;79.62;99814.22;31346772;27;96628;-67
2023/12/31 08:18:34;;;;;;;23.35;11.73;;;;;;;5.94;77.34;99818.94;31340762;27;125881;-66
2023/12/31 08:33:35;;;;;;;21.52;13.15;;;;;;;5.95;73.74;99806.56;31343959;27;97656;-66
2023/12/31 08:48:35;;;;;;;28.98;14.70;;;;;;;7.30;72.76;99800.16;31338388;27;125528;-65
2023/12/31 09:03:35;;;;;;;32.20;16.00;;;;;;;9.98;70.55;99794.13;31339103;27;117277;-65
2023/12/31 09:18:35;;;;;;;24.15;14.82;;;;;;;13.45;63.76;99786.94;31337223;27;125228;-66
2023/12/31 09:33:36;;;;;;;14.30;9.23;;;;;;;15.50;59.47;99767.66;31336137;27;113632;-66
2023/12/31 09:48:37;;;;;;;16.80;10.90;;;;;;;16.99;55.39;99738.69;31336186;27;125539;-66
2023/12/31 10:03:38;;;;;;;;;;;;;;;16.91;49.85;99719.13;31336395;27;97660;-66
2023/12/31 10:18:38;;;;;;;12.38;8.80;;;;;;;19.17;46.96;99701.59;31335543;27;97396;-66
2023/12/31 10:33:39;;;;;;;16.23;9.87;;;;;;;18.96;45.22;99667.97;31339247;27;97451;-66
2023/12/31 10:48:47;;;;;;;18.53;11.37;;;;;;;20.89;41.27;99642.00;31351066;27;97540;-65
2023/12/31 11:03:57;;;;;;;17.10;10.23;;;;;;;24.08;37.27;99624.06;31349113;27;97205;-64
2023/12/31 11:19:30;;;;;;;14.17;9.67;;;;;;;23.88;32.17;99609.41;31347967;27;96797;-66
2023/12/31 11:34:36;;;;;;;18.07;9.27;;;;;;;22.39;32.65;99568.25;31323637;27;97121;-66
2023/12/31 11:49:39;;;;;;;17.03;10.63;;;;;;;20.89;33.09;99531.00;31349187;27;97345;-65
2023/12/31 12:04:39;;;;;;;17.63;10.83;;;;;;;19.49;35.36;99489.63;31345358;27;97401;-65
2023/12/31 12:19:39;;;;;;;21.37;12.50;;;;;;;19.09;34.05;99453.63;31344436;27;96696;-65
2023/12/31 12:34:40;;;;;;;15.53;8.83;;;;;;;20.28;32.88;99418.28;31340939;27;125549;-65
2023/12/31 12:49:40;;;;;;;18.30;9.53;;;;;;;16.63;36.65;99404.13;31338957;27;97141;-64
2023/12/31 13:04:40;;;;;;;15.60;9.52;;;;;;;15.13;39.52;99401.69;31337981;27;97324;-65
2023/12/31 13:19:41;;;;;;;18.90;10.20;;;;;;;14.99;40.38;99379.53;31337552;27;96739;-66
2023/12/31 13:34:41;;;;;;;20.83;10.70;;;;;;;15.48;39.70;99356.34;31338193;27;126712;-66
2023/12/31 13:49:41;;;;;;;18.05;11.00;;;;;;;15.30;40.61;99338.38;31334143;27;97984;-65
2023/12/31 14:04:42;;;;;;;19.55;11.52;;;;;;;13.13;42.44;99313.22;31333779;27;125576;-65
2023/12/31 14:19:43;;;;;;;23.93;13.70;;;;;;;10.55;47.07;99307.38;31333268;27;96814;-65
2023/12/31 14:34:43;;;;;;;21.95;11.77;;;;;;;8.92;50.16;99296.00;31330504;27;97495;-65
2023/12/31 14:49:44;;;;;;;19.98;12.13;;;;;;;7.54;52.28;99281.72;31327526;27;96966;-66
2023/12/31 15:04:45;;;;;;;19.57;10.30;;;;;;;6.50;54.72;99263.13;31328519;27;96990;-65
2023/12/31 15:19:45;;;;;;;23.08;14.38;;;;;;;5.82;57.04;99249.19;31333879;27;125846;-65
2023/12/31 15:34:45;;;;;;;28.00;13.68;;;;;;;5.35;58.61;99230.25;31347474;27;96845;-65
2023/12/31 15:49:46;;;;;;;30.80;15.45;;;;;;;4.93;59.89;99233.69;31346521;27;96537;-66
2023/12/31 16:04:46;;;;;;;28.02;15.05;;;;;;;4.63;61.45;99220.00;31347412;27;98451;-65
2023/12/31 16:19:47;;;;;;;33.33;17.67;;;;;;;4.42;62.53;99219.56;31345145;27;97606;-66
2023/12/31 16:34:47;;;;;;;40.92;22.27;;;;;;;4.21;63.50;99212.78;31340177;27;126538;-64
2023/12/31 16:49:47;;;;;;;47.17;23.95;;;;;;;4.07;64.21;99195.72;31338416;27;97426;-66
2023/12/31 17:04:47;;;;;;;45.63;24.13;;;;;;;3.89;65.20;99193.09;31337576;27;126597;-64
2023/12/31 17:19:49;;;;;;;39.00;22.73;;;;;;;3.91;65.78;99180.63;31336777;27;97085;-65
2023/12/31 17:34:49;;;;;;;45.13;23.27;;;;;;;3.88;66.60;99176.47;31336483;27;96956;-65
2023/12/31 17:49:50;;;;;;;37.70;19.00;;;;;;;3.87;67.44;99179.28;31335843;27;96664;-65
2023/12/31 18:04:50;;;;;;;39.92;22.65;;;;;;;3.95;68.06;99187.25;31333509;27;118896;-64
2023/12/31 18:19:50;;;;;;;51.25;27.88;;;;;;;3.88;68.05;99173.00;31332793;27;97174;-65
2023/12/31 18:34:51;;;;;;;54.35;28.20;;;;;;;3.78;68.49;99182.81;31329064;27;99323;-65
2023/12/31 18:49:51;;;;;;;55.85;28.25;;;;;;;3.60;69.20;99190.72;31327013;27;110075;-65
2023/12/31 19:04:51;;;;;;;56.08;29.35;;;;;;;3.65;70.02;99156.81;31348770;27;126863;-66
2023/12/31 19:19:52;;;;;;;83.93;39.28;;;;;;;3.79;70.49;99158.94;31348365;27;97133;-66
2023/12/31 19:34:54;;;;;;;89.70;48.75;;;;;;;3.90;70.57;99132.34;31348080;27;125592;-65
2023/12/31 19:49:55;;;;;;;98.05;49.10;;;;;;;3.86;70.06;99130.19;31347374;27;96868;-65
2023/12/31 20:04:56;;;;;;;82.25;41.63;;;;;;;3.78;71.07;99122.22;31345575;27;126478;-66
2023/12/31 20:19:56;;;;;;;85.18;41.30;;;;;;;3.76;71.48;99111.00;31343597;27;96662;-66
2023/12/31 20:34:58;;;;;;;63.65;29.92;;;;;;;3.75;71.60;99122.53;31356371;27;98447;-67
2023/12/31 20:49:58;;;;;;;35.75;19.00;;;;;;;3.99;71.82;99137.69;31342101;27;97058;-65
2023/12/31 21:04:58;;;;;;;31.85;16.27;;;;;;;4.28;72.12;99179.56;31339131;27;96882;-67
2023/12/31 21:19:59;;;;;;;31.83;16.17;;;;;;;4.23;71.62;99205.56;31338178;27;97412;-65
2023/12/31 21:34:59;;;;;;;32.45;17.05;;;;;;;4.08;71.92;99221.09;31337200;27;126617;-65
2023/12/31 21:49:59;;;;;;;32.20;20.05;;;;;;;4.10;72.12;99213.03;31336551;27;125169;-65
2023/12/31 22:05:00;;;;;;;35.33;21.08;;;;;;;4.14;72.20;99223.16;31335587;27;126826;-66
2023/12/31 22:20:02;;;;;;;36.97;21.02;;;;;;;4.24;72.46;99228.31;31334332;27;97096;-65
2023/12/31 22:35:03;;;;;;;43.92;25.40;;;;;;;4.27;72.31;99235.91;31333298;27;96688;-65
2023/12/31 22:50:04;;;;;;;44.47;26.20;;;;;;;4.36;72.21;99237.66;31333003;27;97222;-66
2023/12/31 23:05:05;;;;;;;52.33;28.90;;;;;;;4.47;72.13;99227.81;31331352;27;96847;-66
2023/12/31 23:20:08;;;;;;;91.55;52.58;;;;;;;4.16;71.74;99268.63;31330991;27;97608;-65
2023/12/31 23:35:08;;;;;;;127.97;70.85;;;;;;;4.07;72.48;99267.72;31330091;27;96950;-66
2023/12/31 23:50:09;;;;;;;130.80;75.25;;;;;;;4.27;72.73;99272.84;31348654;27;126427;-66
